Time;durP1;ratioP1;P1;durP2;ratioP2;P2;SDS_P1;SDS_P2;PMS_P1;PMS_P2;Temp;Humidity;BMP_temperature;BMP_pressure;BME280_temperature;BME280_humidity;BME280_pressure;Samples;Min_cycle;Max_cycle;Signal;HPM_P1;HPM_P2
2021/12/16 00:02:40;;;;;;;;;;;21.20;47.40;;;;;;5093737;28;19956;-62
2021/12/16 00:07:36;;;;;;;;;;;21.10;47.50;;;;;;5094152;28;19948;-62
2021/12/16 00:10:21;;;;;;;;;;;21.10;47.60;;;;;;5098687;28;19912;-62
2021/12/16 00:34:19;;;;;;;;;;;21.00;47.80;;;;;;5081766;28;19915;-62
2021/12/16 00:36:45;;;;;;;;;;;21.00;47.80;;;;;;5092075;28;19912;-62
2021/12/16 00:39:12;;;;;;;;;;;20.90;47.70;;;;;;5091358;28;19923;-62
2021/12/16 00:41:39;;;;;;;;;;;20.90;47.70;;;;;;5092922;28;19926;-62
2021/12/16 00:44:37;;;;;;;;;;;20.90;47.80;;;;;;5085572;28;20330;-63
2021/12/16 00:49:40;;;;;;;;;;;20.90;47.80;;;;;;5090153;28;19918;-61
2021/12/16 00:55:00;;;;;;;;;;;20.90;47.90;;;;;;5077664;28;19928;-62
2021/12/16 00:57:25;;;;;;;;;;;20.80;47.90;;;;;;5087365;28;19908;-62
2021/12/16 00:59:52;;;;;;;;;;;20.80;47.90;;;;;;5091270;28;19922;-63
2021/12/16 01:02:40;;;;;;;;;;;20.80;48.00;;;;;;5077410;28;19947;-62
2021/12/16 01:08:08;;;;;;;;;;;20.80;48.00;;;;;;5085476;28;19916;-63
2021/12/16 01:35:40;;;;;;;;;;;20.60;48.00;;;;;;5091533;28;19953;-62
2021/12/16 01:52:02;;;;;;;;;;;20.50;48.20;;;;;;5034989;28;19919;-63
2021/12/16 01:54:49;;;;;;;;;;;20.50;48.10;;;;;;5087936;28;19916;-62
2021/12/16 01:57:21;;;;;;;;;;;20.50;48.10;;;;;;5073514;28;19955;-62
2021/12/16 01:59:56;;;;;;;;;;;20.50;48.20;;;;;;5091164;28;19953;-62
2021/12/16 02:02:36;;;;;;;;;;;20.50;48.20;;;;;;5089463;28;19916;-61
2021/12/16 02:08:09;;;;;;;;;;;20.50;48.20;;;;;;5078568;28;19959;-62
2021/12/16 02:10:42;;;;;;;;;;;20.50;48.30;;;;;;5078088;28;19919;-62
2021/12/16 02:37:35;;;;;;;;;;;21.40;46.90;;;;;;5086659;28;19923;-62
2021/12/16 02:40:01;;;;;;;;;;;21.50;46.80;;;;;;5093631;28;19920;-63
2021/12/16 02:42:39;;;;;;;;;;;21.60;46.60;;;;;;5095028;28;19954;-62
2021/12/16 02:50:19;;;;;;;;;;;21.70;46.40;;;;;;5089586;28;20417;-63
2021/12/16 02:52:45;;;;;;;;;;;21.80;46.40;;;;;;5086964;28;19912;-64
2021/12/16 02:55:11;;;;;;;;;;;21.80;46.20;;;;;;5087070;28;19915;-63
2021/12/16 02:57:44;;;;;;;;;;;21.90;46.10;;;;;;5075752;28;19916;-62
2021/12/16 03:00:12;;;;;;;;;;;21.90;46.10;;;;;;5098808;28;19934;-62
2021/12/16 03:02:38;;;;;;;;;;;21.90;46.10;;;;;;5087684;28;19923;-63
2021/12/16 03:05:03;;;;;;;;;;;21.80;46.20;;;;;;5094458;28;20414;-62
2021/12/16 03:07:29;;;;;;;;;;;21.70;46.30;;;;;;5092512;28;19916;-63
2021/12/16 03:10:35;;;;;;;;;;;21.70;46.30;;;;;;5073233;28;19908;-63
2021/12/16 03:15:36;;;;;;;;;;;21.70;46.20;;;;;;5101435;28;19919;-62
2021/12/16 03:18:29;;;;;;;;;;;21.70;46.20;;;;;;5075479;28;19913;-62
2021/12/16 03:21:00;;;;;;;;;;;21.80;46.20;;;;;;5090125;28;19918;-62
2021/12/16 03:26:19;;;;;;;;;;;21.80;45.90;;;;;;5095625;28;19915;-62
2021/12/16 03:34:29;;;;;;;;;;;21.70;46.00;;;;;;5108023;28;19951;-62
2021/12/16 03:37:18;;;;;;;;;;;21.70;46.20;;;;;;5075862;28;20073;-62
2021/12/16 03:39:52;;;;;;;;;;;21.60;46.20;;;;;;5094025;28;19912;-62
2021/12/16 03:42:19;;;;;;;;;;;21.60;46.30;;;;;;5090753;28;19926;-62
2021/12/16 03:44:52;;;;;;;;;;;21.60;46.20;;;;;;5093118;28;20324;-62
2021/12/16 03:47:18;;;;;;;;;;;21.60;46.20;;;;;;5098998;28;20006;-62
2021/12/16 03:49:44;;;;;;;;;;;21.60;46.30;;;;;;5092122;28;20392;-62
2021/12/16 03:52:09;;;;;;;;;;;21.60;46.30;;;;;;5092111;28;20002;-62
2021/12/16 03:54:38;;;;;;;;;;;21.60;46.30;;;;;;5087661;28;19913;-62
2021/12/16 03:57:04;;;;;;;;;;;21.60;46.40;;;;;;5086017;28;20288;-62
2021/12/16 03:59:30;;;;;;;;;;;21.70;46.60;;;;;;5085079;28;19916;-62
2021/12/16 04:01:57;;;;;;;;;;;21.60;46.60;;;;;;5086302;28;19924;-62
2021/12/16 04:04:22;;;;;;;;;;;21.60;46.60;;;;;;5074940;28;20204;-62
2021/12/16 04:06:48;;;;;;;;;;;21.60;46.60;;;;;;5091797;28;19920;-63
2021/12/16 04:09:14;;;;;;;;;;;21.60;46.70;;;;;;5092459;28;20403;-62
2021/12/16 04:11:42;;;;;;;;;;;21.60;46.70;;;;;;5080651;28;19913;-62
2021/12/16 04:14:08;;;;;;;;;;;21.60;46.70;;;;;;5089905;28;19924;-62
2021/12/16 04:16:38;;;;;;;;;;;21.50;46.60;;;;;;5076369;28;19916;-62
2021/12/16 04:19:09;;;;;;;;;;;21.50;46.60;;;;;;5070989;28;19909;-62
2021/12/16 04:21:35;;;;;;;;;;;21.50;46.70;;;;;;5070552;28;19963;-62
2021/12/16 04:24:00;;;;;;;;;;;21.50;46.70;;;;;;5095277;28;19954;-62
2021/12/16 04:26:26;;;;;;;;;;;21.50;46.70;;;;;;5076246;28;20590;-63
2021/12/16 04:28:52;;;;;;;;;;;21.50;46.70;;;;;;5091950;28;19994;-62
2021/12/16 04:31:17;;;;;;;;;;;21.40;46.60;;;;;;5084588;28;20269;-62
2021/12/16 04:33:43;;;;;;;;;;;21.40;46.70;;;;;;5085531;28;19916;-63
2021/12/16 04:36:08;;;;;;;;;;;21.40;46.70;;;;;;5086749;28;19973;-62
2021/12/16 04:38:35;;;;;;;;;;;21.40;46.80;;;;;;5077224;28;19916;-62
2021/12/16 04:41:00;;;;;;;;;;;21.40;46.90;;;;;;5086118;28;19912;-62
2021/12/16 04:43:33;;;;;;;;;;;21.30;46.90;;;;;;5084174;28;19985;-62
2021/12/16 04:45:59;;;;;;;;;;;21.30;47.00;;;;;;5080664;28;19913;-62
2021/12/16 04:48:24;;;;;;;;;;;21.30;47.10;;;;;;5091744;28;20435;-62
2021/12/16 04:50:50;;;;;;;;;;;21.30;47.20;;;;;;5091143;28;20339;-62
2021/12/16 04:53:15;;;;;;;;;;;21.30;47.20;;;;;;5084443;28;19916;-62
2021/12/16 04:55:41;;;;;;;;;;;21.30;47.00;;;;;;5090643;28;19962;-62
2021/12/16 04:58:06;;;;;;;;;;;21.30;47.10;;;;;;5089357;28;19912;-62
2021/12/16 05:00:32;;;;;;;;;;;21.30;47.10;;;;;;5088325;28;19909;-62
2021/12/16 05:02:57;;;;;;;;;;;21.30;47.10;;;;;;5082842;28;20410;-62
2021/12/16 05:05:24;;;;;;;;;;;21.30;47.00;;;;;;5080963;28;19999;-62
2021/12/16 05:07:50;;;;;;;;;;;21.30;47.00;;;;;;5080995;28;20434;-63
2021/12/16 05:10:17;;;;;;;;;;;21.30;47.10;;;;;;5087375;28;19912;-62
2021/12/16 05:12:44;;;;;;;;;;;21.40;47.10;;;;;;5090301;28;19928;-62
2021/12/16 05:15:11;;;;;;;;;;;21.40;47.10;;;;;;5088853;28;20261;-62
2021/12/16 05:17:42;;;;;;;;;;;21.30;47.00;;;;;;5083497;28;19935;-62
2021/12/16 05:20:10;;;;;;;;;;;21.40;47.10;;;;;;5096997;28;19946;-62
2021/12/16 05:25:33;;;;;;;;;;;21.40;47.00;;;;;;5084574;28;20017;-62
2021/12/16 05:27:58;;;;;;;;;;;21.40;47.00;;;;;;5098332;28;19920;-62
2021/12/16 05:30:24;;;;;;;;;;;21.40;47.00;;;;;;5091651;28;19908;-62
2021/12/16 05:32:49;;;;;;;;;;;21.40;47.00;;;;;;5078173;28;19938;-63
2021/12/16 05:35:15;;;;;;;;;;;21.40;47.10;;;;;;5089988;28;19908;-62
2021/12/16 05:37:42;;;;;;;;;;;21.40;47.10;;;;;;5085459;28;20003;-62
2021/12/16 05:40:09;;;;;;;;;;;21.40;47.10;;;;;;5091437;28;19965;-63
2021/12/16 05:42:34;;;;;;;;;;;21.40;47.10;;;;;;5077431;28;19912;-62
2021/12/16 05:44:59;;;;;;;;;;;21.40;47.10;;;;;;5091457;28;19919;-62
2021/12/16 05:47:25;;;;;;;;;;;21.40;47.10;;;;;;5085103;28;19908;-62
2021/12/16 05:49:50;;;;;;;;;;;21.40;47.10;;;;;;5089922;28;20009;-62
2021/12/16 05:52:16;;;;;;;;;;;21.40;47.10;;;;;;5077040;28;19916;-62
2021/12/16 05:54:41;;;;;;;;;;;21.40;47.20;;;;;;5073336;28;19919;-62
2021/12/16 05:57:07;;;;;;;;;;;21.40;47.10;;;;;;5083617;28;19915;-62
2021/12/16 05:59:32;;;;;;;;;;;21.30;47.10;;;;;;5087617;28;19919;-62
2021/12/16 06:01:57;;;;;;;;;;;21.40;47.20;;;;;;5078907;28;20374;-62
2021/12/16 06:04:23;;;;;;;;;;;21.30;47.20;;;;;;5088145;28;20319;-62
2021/12/16 06:06:48;;;;;;;;;;;21.30;47.10;;;;;;5076410;28;19916;-62
2021/12/16 06:09:14;;;;;;;;;;;21.30;47.10;;;;;;5091305;28;20403;-63
2021/12/16 06:11:42;;;;;;;;;;;21.30;47.10;;;;;;5083424;28;19938;-63
2021/12/16 06:14:24;;;;;;;;;;;21.30;47.10;;;;;;5088932;28;20403;-62
2021/12/16 06:27:34;;;;;;;;;;;21.30;47.30;;;;;;5090879;28;19931;-62
2021/12/16 06:29:59;;;;;;;;;;;21.30;47.30;;;;;;5084492;28;20365;-62
2021/12/16 06:32:26;;;;;;;;;;;21.30;47.30;;;;;;5089325;28;19919;-62
2021/12/16 06:34:52;;;;;;;;;;;21.30;47.30;;;;;;5086286;28;19923;-62
2021/12/16 06:37:17;;;;;;;;;;;21.30;47.30;;;;;;5081051;28;19996;-62
2021/12/16 06:39:43;;;;;;;;;;;21.30;47.30;;;;;;5071171;28;19980;-62
2021/12/16 06:42:09;;;;;;;;;;;21.30;47.30;;;;;;5085721;28;20376;-62
2021/12/16 06:44:46;;;;;;;;;;;21.30;47.40;;;;;;5084925;28;20490;-62
2021/12/16 06:47:18;;;;;;;;;;;21.30;47.30;;;;;;5088650;28;20249;-62
2021/12/16 06:49:46;;;;;;;;;;;21.30;47.40;;;;;;5065857;28;19924;-62
2021/12/16 06:52:14;;;;;;;;;;;21.30;47.50;;;;;;5083248;28;20003;-62
2021/12/16 06:55:00;;;;;;;;;;;21.30;47.40;;;;;;5078484;28;19912;-62
2021/12/16 07:00:11;;;;;;;;;;;21.30;47.40;;;;;;5094681;28;19918;-62
2021/12/16 07:02:52;;;;;;;;;;;21.30;47.40;;;;;;5072020;28;19916;-62
2021/12/16 07:05:18;;;;;;;;;;;21.30;47.40;;;;;;5079216;28;19928;-63
2021/12/16 07:07:43;;;;;;;;;;;21.30;47.40;;;;;;5098261;28;19916;-62
2021/12/16 07:10:09;;;;;;;;;;;21.30;47.40;;;;;;5093757;28;20370;-63
2021/12/16 07:12:36;;;;;;;;;;;21.30;47.40;;;;;;5089190;28;19908;-62
2021/12/16 07:15:11;;;;;;;;;;;21.20;47.40;;;;;;5072267;28;19916;-62
2021/12/16 07:17:37;;;;;;;;;;;21.20;47.50;;;;;;5088596;28;20271;-62
2021/12/16 07:20:03;;;;;;;;;;;21.20;47.50;;;;;;5092432;28;19995;-62
2021/12/16 07:22:29;;;;;;;;;;;21.20;47.60;;;;;;5094498;28;20300;-62
2021/12/16 07:24:54;;;;;;;;;;;21.20;47.60;;;;;;5101131;28;19915;-62
2021/12/16 07:27:20;;;;;;;;;;;21.20;47.60;;;;;;5090053;28;19908;-62
2021/12/16 07:29:45;;;;;;;;;;;21.20;47.70;;;;;;5094258;28;19946;-62
2021/12/16 07:32:10;;;;;;;;;;;21.20;47.70;;;;;;5094293;28;20376;-62
2021/12/16 07:34:36;;;;;;;;;;;21.20;47.70;;;;;;5093360;28;20277;-62
2021/12/16 07:37:04;;;;;;;;;;;21.20;47.60;;;;;;5093268;28;20355;-62
2021/12/16 07:39:37;;;;;;;;;;;21.20;47.60;;;;;;5093472;27;20410;-63
2021/12/16 07:42:03;;;;;;;;;;;21.20;47.70;;;;;;5095455;28;20303;-62
2021/12/16 07:44:28;;;;;;;;;;;21.30;47.70;;;;;;5082191;28;19920;-62
2021/12/16 07:46:55;;;;;;;;;;;21.20;47.70;;;;;;5085389;28;19913;-62
2021/12/16 07:49:25;;;;;;;;;;;21.20;47.80;;;;;;5082416;28;19916;-62
2021/12/16 07:51:50;;;;;;;;;;;21.20;48.00;;;;;;5084933;28;19912;-62
2021/12/16 07:54:16;;;;;;;;;;;21.30;48.00;;;;;;5092602;28;19920;-62
2021/12/16 07:56:41;;;;;;;;;;;21.40;48.00;;;;;;5085648;28;20030;-63
2021/12/16 07:59:07;;;;;;;;;;;21.60;47.80;;;;;;5083553;28;19966;-63
2021/12/16 08:01:34;;;;;;;;;;;21.70;47.60;;;;;;5081544;28;19920;-63
2021/12/16 08:04:00;;;;;;;;;;;21.80;47.40;;;;;;5089561;28;19916;-62
2021/12/16 08:06:25;;;;;;;;;;;22.00;47.30;;;;;;5079495;28;19959;-63
2021/12/16 08:08:52;;;;;;;;;;;22.00;47.10;;;;;;5089180;28;20018;-63
2021/12/16 08:11:17;;;;;;;;;;;22.10;47.00;;;;;;5091026;28;19912;-63
2021/12/16 08:13:43;;;;;;;;;;;22.10;46.90;;;;;;5072803;28;19935;-63
2021/12/16 08:16:08;;;;;;;;;;;22.20;46.80;;;;;;5087929;28;19943;-63
2021/12/16 08:18:33;;;;;;;;;;;22.20;46.70;;;;;;5090783;28;20019;-62
2021/12/16 08:20:59;;;;;;;;;;;22.30;46.70;;;;;;5087974;28;19924;-62
2021/12/16 08:23:24;;;;;;;;;;;22.30;46.60;;;;;;5084844;28;19912;-62
2021/12/16 08:25:50;;;;;;;;;;;22.30;46.50;;;;;;5091743;28;19919;-63
2021/12/16 08:28:17;;;;;;;;;;;22.40;46.40;;;;;;5088862;28;21306;-62
2021/12/16 08:30:45;;;;;;;;;;;22.40;46.40;;;;;;5081039;28;19936;-62
2021/12/16 08:33:12;;;;;;;;;;;22.40;46.40;;;;;;5075361;28;19920;-63
2021/12/16 08:35:40;;;;;;;;;;;22.40;46.40;;;;;;5079353;28;20365;-62
2021/12/16 08:38:06;;;;;;;;;;;22.40;46.40;;;;;;5087186;28;19908;-62
2021/12/16 08:40:31;;;;;;;;;;;22.50;46.50;;;;;;5086095;28;19947;-62
2021/12/16 08:42:57;;;;;;;;;;;22.50;46.50;;;;;;5090260;28;19936;-62
2021/12/16 08:45:24;;;;;;;;;;;22.50;46.50;;;;;;5067981;28;20017;-62
2021/12/16 08:47:50;;;;;;;;;;;22.50;46.50;;;;;;5091596;28;19908;-62
2021/12/16 08:50:16;;;;;;;;;;;22.50;46.50;;;;;;5089198;28;20348;-62
2021/12/16 08:52:41;;;;;;;;;;;22.50;46.40;;;;;;5101478;28;19966;-61
2021/12/16 08:55:07;;;;;;;;;;;22.60;46.40;;;;;;5089807;28;19916;-61
2021/12/16 08:57:32;;;;;;;;;;;22.60;46.30;;;;;;5070286;28;19946;-61
2021/12/16 08:59:58;;;;;;;;;;;22.60;46.30;;;;;;5081869;28;20287;-62
2021/12/16 09:02:23;;;;;;;;;;;22.60;46.20;;;;;;5089735;28;19964;-62
2021/12/16 09:04:49;;;;;;;;;;;22.60;46.30;;;;;;5083727;28;19911;-63
2021/12/16 09:07:14;;;;;;;;;;;22.60;46.20;;;;;;5087024;28;20292;-63
2021/12/16 09:09:40;;;;;;;;;;;22.60;46.20;;;;;;5096500;28;19912;-62
2021/12/16 09:12:14;;;;;;;;;;;22.60;46.20;;;;;;5093728;28;19912;-62
2021/12/16 09:14:40;;;;;;;;;;;22.70;46.20;;;;;;5087601;28;19920;-62
2021/12/16 09:17:09;;;;;;;;;;;22.70;46.20;;;;;;5087453;28;19923;-62
2021/12/16 09:19:36;;;;;;;;;;;22.70;46.20;;;;;;5075557;28;19927;-63
2021/12/16 09:22:01;;;;;;;;;;;22.70;46.20;;;;;;5087978;28;20402;-62
2021/12/16 09:24:27;;;;;;;;;;;22.70;46.30;;;;;;5082536;28;19970;-62
2021/12/16 09:26:52;;;;;;;;;;;22.70;46.20;;;;;;5088935;28;20394;-62
2021/12/16 09:29:17;;;;;;;;;;;22.70;46.20;;;;;;5091389;28;20462;-63
2021/12/16 09:31:43;;;;;;;;;;;22.70;46.20;;;;;;5082006;28;20374;-62
2021/12/16 09:34:09;;;;;;;;;;;22.70;46.20;;;;;;5091146;28;20422;-63
2021/12/16 09:36:38;;;;;;;;;;;22.70;46.20;;;;;;5081024;28;20461;-62
2021/12/16 09:39:05;;;;;;;;;;;22.70;46.10;;;;;;5079134;28;19912;-62
2021/12/16 09:41:30;;;;;;;;;;;22.70;46.10;;;;;;5085034;28;20303;-63
2021/12/16 09:43:56;;;;;;;;;;;22.70;46.10;;;;;;5089166;28;20007;-64
2021/12/16 09:46:23;;;;;;;;;;;22.70;46.10;;;;;;5086591;28;20306;-62
2021/12/16 09:48:49;;;;;;;;;;;22.80;46.10;;;;;;5075232;28;19963;-63
2021/12/16 09:51:20;;;;;;;;;;;22.80;46.10;;;;;;5076164;28;20392;-63
2021/12/16 09:53:46;;;;;;;;;;;22.80;46.10;;;;;;5089256;28;19912;-62
2021/12/16 09:56:11;;;;;;;;;;;22.80;46.10;;;;;;5079375;28;19938;-62
2021/12/16 09:58:39;;;;;;;;;;;22.80;46.10;;;;;;5086402;28;19912;-62
2021/12/16 10:01:04;;;;;;;;;;;22.80;46.20;;;;;;5079021;28;19917;-62
2021/12/16 10:03:30;;;;;;;;;;;22.80;46.10;;;;;;5079711;28;19923;-61
2021/12/16 10:05:55;;;;;;;;;;;22.80;46.10;;;;;;5083251;28;19919;-61
2021/12/16 10:08:21;;;;;;;;;;;22.80;46.10;;;;;;5080747;28;19957;-63
2021/12/16 10:10:46;;;;;;;;;;;22.90;46.20;;;;;;5082341;28;19912;-63
2021/12/16 10:13:19;;;;;;;;;;;22.80;46.10;;;;;;5076163;28;20338;-63
2021/12/16 10:18:17;;;;;;;;;;;22.90;46.30;;;;;;5082148;28;19930;-63
2021/12/16 10:20:48;;;;;;;;;;;22.90;46.20;;;;;;5078002;28;19912;-62
2021/12/16 10:23:15;;;;;;;;;;;23.00;46.00;;;;;;5085768;28;19926;-63
2021/12/16 10:25:40;;;;;;;;;;;23.10;45.80;;;;;;5082430;28;19912;-63
2021/12/16 10:28:13;;;;;;;;;;;23.30;45.70;;;;;;5095704;28;19961;-63
2021/12/16 10:30:41;;;;;;;;;;;23.40;45.50;;;;;;5087303;28;20346;-63
2021/12/16 10:33:11;;;;;;;;;;;23.40;45.30;;;;;;5092898;28;19912;-64
2021/12/16 10:35:37;;;;;;;;;;;23.50;45.20;;;;;;5092832;28;19908;-63
2021/12/16 10:38:03;;;;;;;;;;;23.50;45.10;;;;;;5072914;28;20399;-63
2021/12/16 10:40:31;;;;;;;;;;;23.60;45.10;;;;;;5088882;28;19927;-63
2021/12/16 10:42:57;;;;;;;;;;;23.60;45.00;;;;;;5086649;28;20265;-63
2021/12/16 10:45:26;;;;;;;;;;;23.60;45.00;;;;;;5079757;28;19931;-63
2021/12/16 10:48:11;;;;;;;;;;;23.70;45.00;;;;;;5089306;28;20376;-63
2021/12/16 10:50:50;;;;;;;;;;;23.70;44.90;;;;;;5092745;28;19923;-63
2021/12/16 10:53:15;;;;;;;;;;;23.70;44.80;;;;;;5079118;28;19916;-63
2021/12/16 10:55:54;;;;;;;;;;;23.80;44.80;;;;;;5064895;28;19913;-63
2021/12/16 10:58:20;;;;;;;;;;;23.80;44.80;;;;;;5080438;28;19985;-63
2021/12/16 11:00:45;;;;;;;;;;;23.80;44.70;;;;;;5088936;28;19913;-63
2021/12/16 11:03:11;;;;;;;;;;;23.90;44.70;;;;;;5084535;28;19915;-63
2021/12/16 11:05:36;;;;;;;;;;;23.80;44.60;;;;;;5091676;28;19912;-64
2021/12/16 11:08:04;;;;;;;;;;;23.90;44.60;;;;;;5086923;28;20005;-63
2021/12/16 11:10:31;;;;;;;;;;;23.90;44.60;;;;;;5073417;28;19917;-64
2021/12/16 11:12:57;;;;;;;;;;;23.90;44.60;;;;;;5088873;28;20007;-64
2021/12/16 11:15:28;;;;;;;;;;;24.00;44.70;;;;;;5081559;28;19912;-63
2021/12/16 11:17:53;;;;;;;;;;;23.90;44.60;;;;;;5071205;28;20018;-63
2021/12/16 11:20:30;;;;;;;;;;;24.00;44.60;;;;;;5093419;28;20038;-63
2021/12/16 11:22:57;;;;;;;;;;;24.00;44.50;;;;;;5086812;28;19935;-63
2021/12/16 11:25:25;;;;;;;;;;;24.00;44.50;;;;;;5083890;28;20030;-63
2021/12/16 11:27:54;;;;;;;;;;;24.00;44.50;;;;;;5082212;28;20276;-63
2021/12/16 11:30:21;;;;;;;;;;;24.00;44.30;;;;;;5094047;28;19916;-63
2021/12/16 11:32:47;;;;;;;;;;;24.00;44.30;;;;;;5072362;28;20543;-63
2021/12/16 11:35:26;;;;;;;;;;;24.10;44.40;;;;;;5081107;28;19919;-62
2021/12/16 11:37:51;;;;;;;;;;;24.00;44.20;;;;;;5079832;28;20005;-62
2021/12/16 11:40:17;;;;;;;;;;;24.10;44.30;;;;;;5093814;28;19921;-63
2021/12/16 11:42:42;;;;;;;;;;;24.10;44.20;;;;;;5082661;28;20261;-63
2021/12/16 11:45:08;;;;;;;;;;;24.10;44.20;;;;;;5085780;28;19921;-64
2021/12/16 11:47:33;;;;;;;;;;;24.10;44.20;;;;;;5076221;28;20261;-62
2021/12/16 11:50:01;;;;;;;;;;;24.20;44.20;;;;;;5091206;28;19969;-63
2021/12/16 11:52:28;;;;;;;;;;;24.10;44.10;;;;;;5094145;28;19927;-63
2021/12/16 11:54:56;;;;;;;;;;;24.20;44.20;;;;;;5090332;28;19916;-62
2021/12/16 11:57:25;;;;;;;;;;;24.10;44.10;;;;;;5092845;28;19999;-63
2021/12/16 11:59:54;;;;;;;;;;;24.10;44.10;;;;;;5077592;28;20373;-63
2021/12/16 12:02:32;;;;;;;;;;;24.20;44.10;;;;;;5072822;28;19979;-62
2021/12/16 12:05:16;;;;;;;;;;;24.10;44.00;;;;;;5077156;28;20391;-62
2021/12/16 12:07:43;;;;;;;;;;;24.20;44.10;;;;;;5081179;28;20338;-62
2021/12/16 12:10:09;;;;;;;;;;;24.20;44.10;;;;;;5082863;28;19916;-61
2021/12/16 12:12:41;;;;;;;;;;;24.20;44.20;;;;;;5074891;28;19908;-61
2021/12/16 12:15:07;;;;;;;;;;;24.20;44.30;;;;;;5093554;28;19969;-62
2021/12/16 12:17:41;;;;;;;;;;;24.20;44.20;;;;;;5091158;28;20518;-61
2021/12/16 12:20:06;;;;;;;;;;;24.20;44.20;;;;;;5080498;28;19916;-62
2021/12/16 12:22:32;;;;;;;;;;;24.20;44.20;;;;;;5080698;28;20067;-62
2021/12/16 12:24:57;;;;;;;;;;;24.30;44.20;;;;;;5101574;28;20248;-62
2021/12/16 12:27:25;;;;;;;;;;;24.30;44.20;;;;;;5091409;28;19970;-63
2021/12/16 12:29:54;;;;;;;;;;;24.30;44.10;;;;;;5088066;28;20388;-62
2021/12/16 12:32:25;;;;;;;;;;;24.30;44.10;;;;;;5084060;28;20449;-62
2021/12/16 12:34:52;;;;;;;;;;;24.40;44.10;;;;;;5088321;28;19954;-62
2021/12/16 12:37:19;;;;;;;;;;;24.40;44.10;;;;;;5081542;28;19908;-62
2021/12/16 12:39:58;;;;;;;;;;;24.50;44.10;;;;;;5088124;28;19915;-62
2021/12/16 12:42:23;;;;;;;;;;;24.50;44.20;;;;;;5086341;28;19926;-62
2021/12/16 12:44:49;;;;;;;;;;;24.50;44.30;;;;;;5077525;28;19909;-63
2021/12/16 12:47:17;;;;;;;;;;;24.50;44.50;;;;;;5086841;28;19919;-62
2021/12/16 12:49:42;;;;;;;;;;;24.50;44.60;;;;;;5080134;28;19908;-62
2021/12/16 12:52:12;;;;;;;;;;;24.50;44.60;;;;;;5091099;28;20653;-62
2021/12/16 12:54:38;;;;;;;;;;;24.50;44.70;;;;;;5083072;28;19915;-62
2021/12/16 12:57:36;;;;;;;;;;;24.50;44.80;;;;;;5078948;28;19915;-63
2021/12/16 13:00:03;;;;;;;;;;;24.50;44.80;;;;;;5048007;28;19930;-63
2021/12/16 13:02:33;;;;;;;;;;;24.50;44.80;;;;;;5073218;28;19924;-63
2021/12/16 13:04:58;;;;;;;;;;;24.50;44.80;;;;;;5075196;28;19912;-63
2021/12/16 13:07:34;;;;;;;;;;;24.50;44.90;;;;;;5085317;28;19937;-63
2021/12/16 13:10:06;;;;;;;;;;;24.50;44.90;;;;;;5082613;28;19920;-63
2021/12/16 13:12:55;;;;;;;;;;;24.50;44.90;;;;;;5088370;28;20410;-63
2021/12/16 13:15:25;;;;;;;;;;;24.50;44.90;;;;;;5076092;28;19925;-62
2021/12/16 13:23:29;;;;;;;;;;;24.50;44.90;;;;;;5096915;28;20441;-62
2021/12/16 13:26:22;;;;;;;;;;;24.50;45.00;;;;;;5080555;28;19916;-62
2021/12/16 13:29:14;;;;;;;;;;;24.50;45.00;;;;;;5087900;28;19919;-63
2021/12/16 13:34:52;;;;;;;;;;;24.40;45.10;;;;;;5097498;28;20436;-62
2021/12/16 13:37:22;;;;;;;;;;;24.40;45.10;;;;;;5085693;28;19915;-62
2021/12/16 13:39:49;;;;;;;;;;;24.40;44.90;;;;;;5079152;28;19965;-63
2021/12/16 13:42:15;;;;;;;;;;;24.40;45.00;;;;;;5080001;28;19923;-62
2021/12/16 13:45:02;;;;;;;;;;;24.40;45.00;;;;;;5087994;28;19912;-63
2021/12/16 13:59:13;;;;;;;;;;;24.50;44.90;;;;;;5085034;28;19915;-62
2021/12/16 14:01:27;;;;;;;;;;;24.50;44.80;;;;;;5079584;28;19926;-63
2021/12/16 14:04:07;;;;;;;;;;;24.50;45.40;;;;;;5084378;28;19955;-62
2021/12/16 14:06:38;;;;;;;;;;;24.50;44.80;;;;;;5073820;28;19912;-61
2021/12/16 14:09:17;;;;;;;;;;;24.50;44.80;;;;;;5075989;28;19951;-62
2021/12/16 14:22:57;;;;;;;;;;;24.50;44.70;;;;;;5056312;28;19935;-62
2021/12/16 14:23:25;;;;;;;;;;;24.50;44.60;;;;;;5081765;28;19923;-62
2021/12/16 14:32:08;;;;;;;;;;;24.50;44.50;;;;;;5082177;28;19962;-63
2021/12/16 14:42:39;;;;;;;;;;;24.50;44.50;;;;;;5085680;28;19927;-62
2021/12/16 14:45:42;;;;;;;;;;;24.50;44.60;;;;;;5088882;28;19970;-62
2021/12/16 14:50:41;;;;;;;;;;;24.50;44.50;;;;;;5084216;28;19927;-62
2021/12/16 14:53:19;;;;;;;;;;;24.50;44.50;;;;;;5088534;28;19955;-62
2021/12/16 14:55:44;;;;;;;;;;;24.50;44.40;;;;;;5090279;28;19992;-62
2021/12/16 14:58:10;;;;;;;;;;;24.50;44.40;;;;;;5076744;28;20011;-62
2021/12/16 15:00:40;;;;;;;;;;;24.50;44.40;;;;;;5088537;28;19914;-63
2021/12/16 15:03:11;;;;;;;;;;;24.50;44.40;;;;;;5085511;28;19920;-62
2021/12/16 15:05:39;;;;;;;;;;;24.60;44.40;;;;;;5076863;28;20438;-62
2021/12/16 15:08:06;;;;;;;;;;;24.60;44.40;;;;;;5073781;28;19913;-62
2021/12/16 15:10:31;;;;;;;;;;;24.60;44.30;;;;;;5090040;28;19923;-62
2021/12/16 15:13:03;;;;;;;;;;;24.60;44.30;;;;;;5079748;28;20003;-61
2021/12/16 15:15:38;;;;;;;;;;;24.60;44.20;;;;;;5084095;28;20385;-62
2021/12/16 15:37:16;;;;;;;;;;;24.60;44.10;;;;;;5086375;28;20342;-62
2021/12/16 15:45:35;;;;;;;;;;;24.60;44.00;;;;;;5028062;28;19955;-62
2021/12/16 15:48:02;;;;;;;;;;;24.70;44.10;;;;;;5016555;28;19917;-62
2021/12/16 15:50:30;;;;;;;;;;;24.60;44.00;;;;;;5048890;28;19973;-62
2021/12/16 15:52:57;;;;;;;;;;;24.60;43.90;;;;;;5088056;28;19912;-61
2021/12/16 15:55:28;;;;;;;;;;;24.60;44.00;;;;;;5077936;28;19919;-61
2021/12/16 15:57:57;;;;;;;;;;;24.60;43.90;;;;;;5087257;28;19951;-62
2021/12/16 16:00:23;;;;;;;;;;;24.60;43.80;;;;;;5091849;28;19912;-62
2021/12/16 16:02:48;;;;;;;;;;;24.70;43.90;;;;;;5089190;28;19928;-62
2021/12/16 16:05:14;;;;;;;;;;;24.60;43.90;;;;;;5092456;28;19911;-62
2021/12/16 16:07:40;;;;;;;;;;;24.60;43.90;;;;;;5087892;28;20008;-62
2021/12/16 16:10:06;;;;;;;;;;;24.60;44.00;;;;;;5086676;28;20364;-62
2021/12/16 16:12:33;;;;;;;;;;;24.60;43.90;;;;;;5092571;28;19961;-62
2021/12/16 16:15:10;;;;;;;;;;;24.60;43.90;;;;;;5082271;28;19964;-62
2021/12/16 16:18:00;;;;;;;;;;;24.70;44.00;;;;;;5096847;28;20288;-62
2021/12/16 16:20:32;;;;;;;;;;;24.70;43.90;;;;;;5077304;28;20324;-62
2021/12/16 16:23:02;;;;;;;;;;;24.70;43.90;;;;;;5078112;28;19976;-62
2021/12/16 16:25:28;;;;;;;;;;;24.70;43.90;;;;;;5083251;28;20054;-62
2021/12/16 16:27:54;;;;;;;;;;;24.60;43.80;;;;;;5087713;28;19991;-62
2021/12/16 16:30:20;;;;;;;;;;;24.60;43.80;;;;;;5089680;28;19947;-62
2021/12/16 16:33:05;;;;;;;;;;;24.60;43.80;;;;;;5088012;28;19908;-62
2021/12/16 16:35:31;;;;;;;;;;;24.60;43.90;;;;;;5080580;28;19978;-62
2021/12/16 16:38:09;;;;;;;;;;;24.60;43.80;;;;;;5074092;28;19909;-62
2021/12/16 16:40:35;;;;;;;;;;;24.60;43.80;;;;;;5086844;28;20320;-61
2021/12/16 16:43:01;;;;;;;;;;;24.60;43.80;;;;;;5090339;28;19919;-62
2021/12/16 16:45:30;;;;;;;;;;;24.60;43.70;;;;;;5092263;28;19912;-62
2021/12/16 16:48:05;;;;;;;;;;;24.70;43.80;;;;;;5089813;28;20317;-62
2021/12/16 16:50:32;;;;;;;;;;;24.70;43.70;;;;;;5084070;28;19916;-61
2021/12/16 16:52:58;;;;;;;;;;;24.70;43.70;;;;;;5082118;28;20302;-62
2021/12/16 16:55:28;;;;;;;;;;;24.70;43.60;;;;;;5083529;28;19920;-61
2021/12/16 16:57:54;;;;;;;;;;;24.70;43.60;;;;;;5079708;28;19913;-61
2021/12/16 17:00:46;;;;;;;;;;;24.70;43.50;;;;;;5087059;28;19923;-61
2021/12/16 17:03:13;;;;;;;;;;;24.70;43.50;;;;;;5084567;28;19930;-60
2021/12/16 17:05:40;;;;;;;;;;;24.70;43.60;;;;;;5079410;28;19916;-61
2021/12/16 17:08:10;;;;;;;;;;;24.60;43.80;;;;;;5086778;28;20003;-62
2021/12/16 17:10:47;;;;;;;;;;;24.60;43.70;;;;;;5079925;28;19920;-61
2021/12/16 17:13:23;;;;;;;;;;;24.60;43.60;;;;;;5086700;28;19978;-60
2021/12/16 17:18:28;;;;;;;;;;;24.70;43.60;;;;;;5090922;28;20375;-60
2021/12/16 17:20:54;;;;;;;;;;;24.70;43.50;;;;;;5087785;28;19919;-62
2021/12/16 17:23:20;;;;;;;;;;;24.70;43.50;;;;;;5075932;28;19921;-60
2021/12/16 17:25:46;;;;;;;;;;;24.80;43.50;;;;;;5091910;28;19916;-58
2021/12/16 17:28:11;;;;;;;;;;;24.80;43.50;;;;;;5080517;28;19913;-61
2021/12/16 17:30:38;;;;;;;;;;;24.80;43.30;;;;;;5078344;28;19912;-61
2021/12/16 17:33:04;;;;;;;;;;;24.80;43.30;;;;;;5086376;28;19919;-60
2021/12/16 17:35:32;;;;;;;;;;;24.80;43.30;;;;;;5082266;28;19962;-60
2021/12/16 17:38:00;;;;;;;;;;;24.90;43.40;;;;;;5074740;28;20319;-61
2021/12/16 17:40:40;;;;;;;;;;;24.90;43.30;;;;;;5085094;28;19919;-60
2021/12/16 17:43:26;;;;;;;;;;;24.90;43.30;;;;;;5079698;28;19916;-61
2021/12/16 17:45:53;;;;;;;;;;;24.90;43.20;;;;;;5086051;28;19916;-61
2021/12/16 17:48:20;;;;;;;;;;;24.90;43.10;;;;;;5078461;28;19916;-61
2021/12/16 17:50:47;;;;;;;;;;;24.90;43.10;;;;;;5087514;28;20114;-60
2021/12/16 17:53:13;;;;;;;;;;;25.00;43.10;;;;;;5085235;28;19912;-61
2021/12/16 17:55:40;;;;;;;;;;;25.00;43.10;;;;;;5081211;28;19916;-60